DLH785 EDDF-ENBR
Flight info
| Callsign | DLH785 |
|---|---|
| Flight time | N/A |
| Altitude | 24000 |
| Route | MARUN7F/25C MARUN Y152 ARPEG/N0494F430 Z850 ABILU DCT ATPAQ DCT DOROR DCT MITSI DCT BADAB |
| Aircraft | A359/H-SDE2E3GHIJ3J4J5LM1ORWXY/LB1D1 |
Departure
| Time | 2026-05-07 10:44 |
|---|---|
| Airport | Frankfurt Main Airport (EDDF) |
Arrival
| Time | N/A |
|---|---|
| Airport | Bergen Airport, Flesland (ENBR) |
| Time | Latitude | Longitude | Altitude | Speed | Heading |
|---|---|---|---|---|---|
| 2026-05-07 10:17 | 50.03637 | 8.53868 | 373 ft | 0 kts | 159° |
| 2026-05-07 10:35 | 50.03623 | 8.53876 | 373 ft | 9 kts | 159° |
| 2026-05-07 10:36 | 50.03578 | 8.53949 | 374 ft | 10 kts | 100° |
| 2026-05-07 10:36 | 50.03616 | 8.54135 | 374 ft | 26 kts | 69° |
| 2026-05-07 10:36 | 50.03682 | 8.54411 | 372 ft | 28 kts | 70° |
| 2026-05-07 10:36 | 50.03753 | 8.54714 | 372 ft | 31 kts | 70° |
| 2026-05-07 10:37 | 50.03813 | 8.54967 | 372 ft | 10 kts | 70° |
| 2026-05-07 10:37 | 50.03842 | 8.55089 | 368 ft | 14 kts | 70° |
| 2026-05-07 10:37 | 50.03880 | 8.55250 | 375 ft | 18 kts | 70° |
| 2026-05-07 10:37 | 50.03923 | 8.55424 | 371 ft | 15 kts | 69° |
| 2026-05-07 10:38 | 50.03965 | 8.55601 | 373 ft | 19 kts | 69° |
| 2026-05-07 10:38 | 50.04016 | 8.55814 | 372 ft | 23 kts | 69° |
| 2026-05-07 10:38 | 50.04066 | 8.56023 | 367 ft | 20 kts | 70° |
| 2026-05-07 10:38 | 50.04119 | 8.56248 | 373 ft | 24 kts | 70° |
| 2026-05-07 10:39 | 50.04180 | 8.56501 | 374 ft | 25 kts | 69° |
| 2026-05-07 10:39 | 50.04224 | 8.56686 | 373 ft | 19 kts | 70° |
| 2026-05-07 10:39 | 50.04272 | 8.56886 | 374 ft | 13 kts | 70° |
| 2026-05-07 10:39 | 50.04305 | 8.57027 | 374 ft | 16 kts | 69° |
| 2026-05-07 10:40 | 50.04350 | 8.57212 | 372 ft | 20 kts | 69° |
| 2026-05-07 10:40 | 50.04401 | 8.57426 | 374 ft | 21 kts | 70° |
| 2026-05-07 10:40 | 50.04436 | 8.57574 | 372 ft | 15 kts | 70° |
| 2026-05-07 10:40 | 50.04476 | 8.57742 | 373 ft | 19 kts | 69° |
| 2026-05-07 10:41 | 50.04523 | 8.57936 | 372 ft | 11 kts | 69° |
| 2026-05-07 10:41 | 50.04540 | 8.58037 | 371 ft | 9 kts | 67° |
| 2026-05-07 10:41 | 50.04576 | 8.58160 | 375 ft | 18 kts | 69° |
| 2026-05-07 10:41 | 50.04623 | 8.58352 | 373 ft | 21 kts | 69° |
| 2026-05-07 10:42 | 50.04623 | 8.58567 | 375 ft | 21 kts | 139° |
| 2026-05-07 10:42 | 50.04532 | 8.58625 | 378 ft | 1 kts | 165° |
| 2026-05-07 10:42 | 50.04498 | 8.58608 | 379 ft | 7 kts | 217° |
| 2026-05-07 10:42 | 50.04475 | 8.58543 | 379 ft | 0 kts | 248° |
| 2026-05-07 10:43 | 50.04410 | 8.58278 | 377 ft | 69 kts | 250° |
| 2026-05-07 10:43 | 50.04146 | 8.57172 | 378 ft | 145 kts | 250° |
| 2026-05-07 10:44 | 50.03748 | 8.55523 | 934 ft | 163 kts | 251° |
| 2026-05-07 10:44 | 50.03363 | 8.53866 | 1834 ft | 165 kts | 253° |
| 2026-05-07 10:44 | 50.02984 | 8.52145 | 2461 ft | 171 kts | 255° |
| 2026-05-07 10:44 | 50.02678 | 8.50347 | 3088 ft | 173 kts | 265° |
| 2026-05-07 10:45 | 50.02765 | 8.48486 | 3742 ft | 173 kts | 283° |
| 2026-05-07 10:45 | 50.02985 | 8.46645 | 4475 ft | 173 kts | 283° |
| 2026-05-07 10:45 | 50.03207 | 8.44806 | 5207 ft | 173 kts | 282° |
| 2026-05-07 10:45 | 50.03452 | 8.42978 | 5924 ft | 172 kts | 289° |
| 2026-05-07 10:46 | 50.04074 | 8.41440 | 6605 ft | 168 kts | 316° |
| 2026-05-07 10:46 | 50.05003 | 8.40363 | 7266 ft | 165 kts | 324° |
| 2026-05-07 10:46 | 50.05929 | 8.39304 | 7902 ft | 167 kts | 322° |
| 2026-05-07 10:46 | 50.06885 | 8.38102 | 8235 ft | 187 kts | 320° |
| 2026-05-07 10:47 | 50.07951 | 8.36754 | 8548 ft | 207 kts | 321° |
| 2026-05-07 10:47 | 50.09123 | 8.35314 | 8936 ft | 220 kts | 321° |
| 2026-05-07 10:47 | 50.10397 | 8.33847 | 9309 ft | 239 kts | 327° |
| 2026-05-07 10:47 | 50.12025 | 8.32901 | 9655 ft | 263 kts | 352° |
| 2026-05-07 10:48 | 50.13882 | 8.33211 | 10231 ft | 275 kts | 13° |
| 2026-05-07 10:48 | 50.15778 | 8.34083 | 10604 ft | 294 kts | 16° |
| 2026-05-07 10:48 | 50.17787 | 8.35073 | 10912 ft | 312 kts | 16° |
| 2026-05-07 10:48 | 50.19907 | 8.36105 | 11348 ft | 325 kts | 15° |
| 2026-05-07 10:49 | 50.22094 | 8.37158 | 11930 ft | 332 kts | 15° |
| 2026-05-07 10:49 | 50.24317 | 8.38222 | 12616 ft | 336 kts | 15° |
| 2026-05-07 10:49 | 50.26568 | 8.39295 | 13287 ft | 340 kts | 15° |
| 2026-05-07 10:49 | 50.28849 | 8.40381 | 13933 ft | 344 kts | 15° |
| 2026-05-07 10:50 | 50.31145 | 8.41525 | 14490 ft | 349 kts | 17° |
| 2026-05-07 10:50 | 50.33448 | 8.42797 | 15063 ft | 353 kts | 18° |
| 2026-05-07 10:50 | 50.35771 | 8.44093 | 15648 ft | 357 kts | 18° |
| 2026-05-07 10:50 | 50.38119 | 8.45393 | 16222 ft | 360 kts | 18° |
| 2026-05-07 10:51 | 50.40491 | 8.46699 | 16834 ft | 363 kts | 18° |
| 2026-05-07 10:51 | 50.42884 | 8.48013 | 17416 ft | 366 kts | 18° |
| 2026-05-07 10:51 | 50.45297 | 8.49337 | 18028 ft | 369 kts | 18° |
| 2026-05-07 10:51 | 50.47741 | 8.50677 | 18568 ft | 373 kts | 18° |
| 2026-05-07 10:52 | 50.50211 | 8.51922 | 19074 ft | 375 kts | 15° |
| 2026-05-07 10:52 | 50.52723 | 8.53095 | 19586 ft | 378 kts | 15° |
| 2026-05-07 10:52 | 50.55251 | 8.54278 | 20076 ft | 381 kts | 15° |
| 2026-05-07 10:52 | 50.57799 | 8.55483 | 20632 ft | 383 kts | 16° |
| 2026-05-07 10:53 | 50.60360 | 8.56703 | 21120 ft | 386 kts | 16° |
| 2026-05-07 10:53 | 50.62946 | 8.57940 | 21576 ft | 390 kts | 16° |
| 2026-05-07 10:53 | 50.65550 | 8.59190 | 22079 ft | 393 kts | 16° |
| 2026-05-07 10:53 | 50.68177 | 8.60453 | 22513 ft | 397 kts | 16° |
| 2026-05-07 10:54 | 50.70788 | 8.61710 | 22982 ft | 399 kts | 16° |
| 2026-05-07 10:54 | 50.73456 | 8.62996 | 23436 ft | 403 kts | 17° |
| 2026-05-07 10:54 | 50.76164 | 8.64220 | 23801 ft | 406 kts | 13° |
| 2026-05-07 10:54 | 50.78994 | 8.64715 | 23982 ft | 402 kts | 358° |
| 2026-05-07 10:55 | 50.81687 | 8.64031 | 24001 ft | 395 kts | 342° |
| 2026-05-07 10:55 | 50.84178 | 8.62225 | 24017 ft | 394 kts | 327° |
| 2026-05-07 10:55 | 50.86288 | 8.59481 | 24000 ft | 393 kts | 315° |
| 2026-05-07 10:55 | 50.88162 | 8.56324 | 24014 ft | 394 kts | 311° |
| 2026-05-07 10:56 | 50.89942 | 8.53033 | 24002 ft | 393 kts | 309° |
| 2026-05-07 10:56 | 50.91118 | 8.50779 | 24004 ft | 393 kts | 309° |
| 2026-05-07 10:56 | 50.93407 | 8.46337 | 24006 ft | 392 kts | 310° |
| 2026-05-07 10:56 | 50.95133 | 8.43006 | 24002 ft | 390 kts | 310° |
| 2026-05-07 10:57 | 50.96866 | 8.39695 | 24018 ft | 390 kts | 310° |
| 2026-05-07 10:57 | 50.98604 | 8.36399 | 24019 ft | 390 kts | 310° |
| 2026-05-07 10:57 | 51.00373 | 8.33135 | 24004 ft | 391 kts | 313° |
| 2026-05-07 10:57 | 51.02420 | 8.30297 | 24007 ft | 391 kts | 325° |
| 2026-05-07 10:58 | 51.04693 | 8.27928 | 24012 ft | 391 kts | 328° |
| 2026-05-07 10:58 | 51.07042 | 8.25711 | 24013 ft | 393 kts | 330° |
| 2026-05-07 10:58 | 51.09425 | 8.23578 | 24014 ft | 394 kts | 331° |
| 2026-05-07 10:58 | 51.11834 | 8.21471 | 24014 ft | 394 kts | 331° |
| 2026-05-07 10:59 | 51.14236 | 8.19377 | 24014 ft | 394 kts | 331° |
| 2026-05-07 10:59 | 51.16641 | 8.17270 | 24033 ft | 394 kts | 331° |
| 2026-05-07 10:59 | 51.19039 | 8.15153 | 24034 ft | 394 kts | 331° |
| 2026-05-07 10:59 | 51.21432 | 8.13025 | 24019 ft | 394 kts | 331° |
| 2026-05-07 11:00 | 51.23831 | 8.10883 | 24016 ft | 395 kts | 330° |
| 2026-05-07 11:00 | 51.26220 | 8.08744 | 24032 ft | 394 kts | 330° |
| 2026-05-07 11:00 | 51.28605 | 8.06603 | 24035 ft | 393 kts | 330° |
| 2026-05-07 11:00 | 51.30990 | 8.04457 | 24020 ft | 393 kts | 330° |
| 2026-05-07 11:01 | 51.33374 | 8.02310 | 24044 ft | 394 kts | 330° |
| 2026-05-07 11:01 | 51.35763 | 8.00156 | 24046 ft | 394 kts | 330° |
| 2026-05-07 11:01 | 51.38159 | 7.97997 | 24032 ft | 395 kts | 330° |
| 2026-05-07 11:01 | 51.40614 | 7.96190 | 24033 ft | 395 kts | 340° |
| 2026-05-07 11:02 | 51.43281 | 7.95136 | 24032 ft | 395 kts | 349° |
| 2026-05-07 11:02 | 51.45997 | 7.94446 | 24034 ft | 395 kts | 352° |
| 2026-05-07 11:02 | 51.48733 | 7.93916 | 24037 ft | 396 kts | 353° |
| 2026-05-07 11:02 | 51.51508 | 7.93458 | 24036 ft | 396 kts | 354° |
| 2026-05-07 11:03 | 51.54213 | 7.93037 | 24047 ft | 396 kts | 354° |
| 2026-05-07 11:03 | 51.56955 | 7.92606 | 24040 ft | 396 kts | 354° |
| 2026-05-07 11:03 | 51.59737 | 7.92154 | 24041 ft | 397 kts | 353° |
| 2026-05-07 11:03 | 51.62489 | 7.91693 | 24041 ft | 397 kts | 353° |
| 2026-05-07 11:04 | 51.65237 | 7.91221 | 24040 ft | 397 kts | 353° |
| 2026-05-07 11:04 | 51.67951 | 7.90748 | 24041 ft | 397 kts | 353° |
| 2026-05-07 11:04 | 51.70699 | 7.90267 | 24049 ft | 397 kts | 353° |
| 2026-05-07 11:04 | 51.73446 | 7.89784 | 24039 ft | 397 kts | 353° |
| 2026-05-07 11:05 | 51.76195 | 7.89301 | 24036 ft | 397 kts | 353° |
| 2026-05-07 11:05 | 51.78944 | 7.88817 | 24035 ft | 398 kts | 353° |
| 2026-05-07 11:05 | 51.81700 | 7.88332 | 24036 ft | 399 kts | 353° |
| 2026-05-07 11:05 | 51.84462 | 7.87847 | 24035 ft | 399 kts | 353° |
| 2026-05-07 11:06 | 51.87225 | 7.87363 | 24034 ft | 400 kts | 353° |
| 2026-05-07 11:06 | 51.89993 | 7.86876 | 24035 ft | 400 kts | 353° |
| 2026-05-07 11:06 | 51.92758 | 7.86388 | 24039 ft | 400 kts | 353° |
| 2026-05-07 11:06 | 51.95524 | 7.85898 | 24039 ft | 400 kts | 353° |
| 2026-05-07 11:07 | 51.98285 | 7.85410 | 24041 ft | 400 kts | 353° |
| 2026-05-07 11:07 | 52.01054 | 7.84918 | 24048 ft | 400 kts | 353° |
| 2026-05-07 11:07 | 52.03819 | 7.84428 | 24073 ft | 400 kts | 352° |
| 2026-05-07 11:07 | 52.06589 | 7.83936 | 24074 ft | 400 kts | 352° |
| 2026-05-07 11:08 | 52.09358 | 7.83443 | 24072 ft | 400 kts | 352° |
| 2026-05-07 11:08 | 52.12123 | 7.82950 | 24075 ft | 400 kts | 353° |
| 2026-05-07 11:08 | 52.14890 | 7.82457 | 24076 ft | 400 kts | 352° |
| 2026-05-07 11:08 | 52.17656 | 7.81963 | 24074 ft | 400 kts | 353° |
| 2026-05-07 11:09 | 52.20424 | 7.81468 | 24072 ft | 400 kts | 353° |
| 2026-05-07 11:09 | 52.23193 | 7.80973 | 24072 ft | 400 kts | 353° |
| 2026-05-07 11:09 | 52.25960 | 7.80478 | 24069 ft | 400 kts | 353° |
| 2026-05-07 11:09 | 52.28733 | 7.79981 | 24070 ft | 400 kts | 353° |
| 2026-05-07 11:10 | 52.31496 | 7.79485 | 24063 ft | 400 kts | 352° |
| 2026-05-07 11:10 | 52.34267 | 7.78987 | 24062 ft | 400 kts | 352° |
| 2026-05-07 11:10 | 52.37034 | 7.78488 | 24063 ft | 400 kts | 352° |
| 2026-05-07 11:10 | 52.39799 | 7.77989 | 24059 ft | 400 kts | 352° |
| 2026-05-07 11:11 | 52.42565 | 7.77490 | 24057 ft | 400 kts | 352° |
| 2026-05-07 11:11 | 52.45335 | 7.76990 | 24051 ft | 400 kts | 353° |
| 2026-05-07 11:11 | 52.47168 | 7.76658 | 24050 ft | 400 kts | 352° |
| 2026-05-07 11:11 | 52.49937 | 7.76156 | 24048 ft | 400 kts | 352° |
| 2026-05-07 11:12 | 52.52703 | 7.75656 | 24053 ft | 400 kts | 352° |
| 2026-05-07 11:12 | 52.55470 | 7.75147 | 24049 ft | 400 kts | 352° |
| 2026-05-07 11:12 | 52.58231 | 7.74562 | 24049 ft | 400 kts | 351° |
| 2026-05-07 11:12 | 52.60983 | 7.73917 | 24051 ft | 400 kts | 350° |
| 2026-05-07 11:13 | 52.63736 | 7.73250 | 24046 ft | 400 kts | 350° |
| 2026-05-07 11:13 | 52.66491 | 7.72582 | 24050 ft | 400 kts | 351° |
| 2026-05-07 11:13 | 52.69238 | 7.71924 | 24048 ft | 399 kts | 351° |
| 2026-05-07 11:13 | 52.71989 | 7.71275 | 24048 ft | 400 kts | 351° |
| 2026-05-07 11:14 | 52.74744 | 7.70631 | 24044 ft | 400 kts | 351° |
| 2026-05-07 11:14 | 52.77501 | 7.69989 | 24046 ft | 400 kts | 351° |
| 2026-05-07 11:14 | 52.80259 | 7.69350 | 24047 ft | 400 kts | 351° |
| 2026-05-07 11:14 | 52.83019 | 7.68709 | 24048 ft | 400 kts | 351° |
| 2026-05-07 11:15 | 52.85769 | 7.68070 | 24043 ft | 400 kts | 351° |
| 2026-05-07 11:15 | 52.88528 | 7.67428 | 24046 ft | 400 kts | 351° |
| 2026-05-07 11:15 | 52.91284 | 7.66785 | 24044 ft | 400 kts | 351° |
| 2026-05-07 11:15 | 52.94036 | 7.66141 | 24045 ft | 400 kts | 351° |
| 2026-05-07 11:16 | 52.96788 | 7.65496 | 24052 ft | 399 kts | 351° |
| 2026-05-07 11:16 | 52.99540 | 7.64842 | 24044 ft | 399 kts | 351° |
| 2026-05-07 11:16 | 53.02293 | 7.64187 | 24045 ft | 400 kts | 350° |
| 2026-05-07 11:16 | 53.05045 | 7.63540 | 24047 ft | 399 kts | 351° |
| 2026-05-07 11:17 | 53.07753 | 7.62909 | 24049 ft | 398 kts | 351° |
| 2026-05-07 11:17 | 53.10495 | 7.62269 | 24049 ft | 397 kts | 351° |
| 2026-05-07 11:17 | 53.13236 | 7.61627 | 24049 ft | 397 kts | 351° |
| 2026-05-07 11:17 | 53.15978 | 7.60982 | 24046 ft | 397 kts | 351° |
| 2026-05-07 11:18 | 53.18708 | 7.60339 | 24050 ft | 397 kts | 350° |
| 2026-05-07 11:18 | 53.21451 | 7.59689 | 24052 ft | 397 kts | 350° |
| 2026-05-07 11:18 | 53.24184 | 7.59040 | 24052 ft | 397 kts | 351° |
| 2026-05-07 11:18 | 53.26918 | 7.58391 | 24047 ft | 397 kts | 351° |
| 2026-05-07 11:19 | 53.29657 | 7.57739 | 24054 ft | 397 kts | 351° |
| 2026-05-07 11:19 | 53.32394 | 7.57086 | 24052 ft | 397 kts | 351° |
| 2026-05-07 11:19 | 53.35134 | 7.56433 | 24049 ft | 397 kts | 351° |
| 2026-05-07 11:19 | 53.37872 | 7.55781 | 24051 ft | 397 kts | 351° |
| 2026-05-07 11:20 | 53.40606 | 7.55128 | 24049 ft | 397 kts | 351° |
| 2026-05-07 11:20 | 53.43339 | 7.54473 | 24050 ft | 397 kts | 351° |
| 2026-05-07 11:20 | 53.46079 | 7.53817 | 24071 ft | 397 kts | 350° |
| 2026-05-07 11:20 | 53.48816 | 7.53161 | 24074 ft | 397 kts | 350° |
| 2026-05-07 11:21 | 53.51558 | 7.52502 | 24072 ft | 397 kts | 351° |
| 2026-05-07 11:21 | 53.54286 | 7.51846 | 24075 ft | 396 kts | 351° |
| 2026-05-07 11:21 | 53.57014 | 7.51191 | 24075 ft | 396 kts | 351° |
| 2026-05-07 11:21 | 53.59741 | 7.50534 | 24076 ft | 396 kts | 351° |
| 2026-05-07 11:22 | 53.62469 | 7.49875 | 24065 ft | 396 kts | 351° |
| 2026-05-07 11:22 | 53.65198 | 7.49216 | 24064 ft | 396 kts | 350° |
| 2026-05-07 11:22 | 53.67887 | 7.48564 | 24067 ft | 396 kts | 350° |
| 2026-05-07 11:22 | 53.70648 | 7.47894 | 24065 ft | 396 kts | 351° |
| 2026-05-07 11:23 | 53.73376 | 7.47231 | 24073 ft | 396 kts | 351° |
| 2026-05-07 11:23 | 53.76065 | 7.46578 | 24072 ft | 396 kts | 351° |
| 2026-05-07 11:23 | 53.78788 | 7.45914 | 24075 ft | 395 kts | 351° |
| 2026-05-07 11:23 | 53.81506 | 7.45252 | 24083 ft | 395 kts | 351° |
| 2026-05-07 11:24 | 53.84225 | 7.44589 | 24076 ft | 394 kts | 351° |
| 2026-05-07 11:24 | 53.86939 | 7.43927 | 24079 ft | 394 kts | 351° |
| 2026-05-07 11:24 | 53.89653 | 7.43263 | 24079 ft | 394 kts | 351° |
| 2026-05-07 11:24 | 53.92371 | 7.42598 | 24089 ft | 394 kts | 351° |
| 2026-05-07 11:25 | 53.95081 | 7.41933 | 24094 ft | 394 kts | 351° |
| 2026-05-07 11:25 | 53.97798 | 7.41265 | 24091 ft | 394 kts | 351° |
| 2026-05-07 11:25 | 54.00512 | 7.40598 | 24094 ft | 394 kts | 351° |
| 2026-05-07 11:25 | 54.03223 | 7.39931 | 24097 ft | 394 kts | 351° |
| 2026-05-07 11:26 | 54.05936 | 7.39262 | 24099 ft | 394 kts | 351° |
| 2026-05-07 11:26 | 54.08649 | 7.38591 | 24094 ft | 394 kts | 351° |
| 2026-05-07 11:26 | 54.11362 | 7.37920 | 24094 ft | 394 kts | 351° |
| 2026-05-07 11:26 | 54.14078 | 7.37248 | 24098 ft | 394 kts | 351° |
| 2026-05-07 11:27 | 54.16788 | 7.36576 | 24098 ft | 394 kts | 351° |
| 2026-05-07 11:27 | 54.19504 | 7.35902 | 24098 ft | 394 kts | 351° |
| 2026-05-07 11:27 | 54.22217 | 7.35228 | 24099 ft | 394 kts | 351° |
| 2026-05-07 11:27 | 54.24929 | 7.34553 | 24101 ft | 394 kts | 351° |
| 2026-05-07 11:28 | 54.27639 | 7.33877 | 24106 ft | 394 kts | 351° |
| 2026-05-07 11:28 | 54.30352 | 7.33201 | 24103 ft | 394 kts | 351° |
| 2026-05-07 11:28 | 54.33068 | 7.32522 | 24100 ft | 394 kts | 351° |
| 2026-05-07 11:28 | 54.35776 | 7.31844 | 24100 ft | 394 kts | 351° |
| 2026-05-07 11:29 | 54.38488 | 7.31164 | 24099 ft | 394 kts | 351° |
| 2026-05-07 11:29 | 54.41199 | 7.30484 | 24100 ft | 394 kts | 351° |
| 2026-05-07 11:29 | 54.43913 | 7.29802 | 24099 ft | 394 kts | 351° |
| 2026-05-07 11:29 | 54.46627 | 7.29120 | 24104 ft | 394 kts | 351° |
| 2026-05-07 11:30 | 54.49336 | 7.28437 | 24102 ft | 394 kts | 351° |
| 2026-05-07 11:30 | 54.52048 | 7.27753 | 24105 ft | 394 kts | 351° |
| 2026-05-07 11:30 | 54.54756 | 7.27070 | 24109 ft | 394 kts | 351° |
| 2026-05-07 11:30 | 54.57469 | 7.26384 | 24109 ft | 394 kts | 351° |
| 2026-05-07 11:31 | 54.60187 | 7.25696 | 24106 ft | 394 kts | 351° |
| 2026-05-07 11:31 | 54.62865 | 7.25016 | 24103 ft | 394 kts | 351° |
| 2026-05-07 11:31 | 54.65613 | 7.24318 | 24107 ft | 394 kts | 351° |
| 2026-05-07 11:31 | 54.68292 | 7.23637 | 24105 ft | 394 kts | 351° |
| 2026-05-07 11:32 | 54.73722 | 7.22254 | 24109 ft | 394 kts | 351° |
| 2026-05-07 11:32 | 54.76437 | 7.21560 | 24107 ft | 394 kts | 351° |
| 2026-05-07 11:32 | 54.79186 | 7.20858 | 24106 ft | 394 kts | 351° |
| 2026-05-07 11:33 | 54.81869 | 7.20173 | 24105 ft | 394 kts | 350° |
| 2026-05-07 11:33 | 54.84581 | 7.19478 | 24104 ft | 394 kts | 350° |
| 2026-05-07 11:33 | 54.87292 | 7.18781 | 24101 ft | 394 kts | 350° |
| 2026-05-07 11:33 | 54.90004 | 7.18084 | 24109 ft | 394 kts | 350° |
| 2026-05-07 11:34 | 54.92715 | 7.17385 | 24111 ft | 394 kts | 350° |
| 2026-05-07 11:34 | 54.95425 | 7.16686 | 24104 ft | 394 kts | 350° |
| 2026-05-07 11:34 | 54.98136 | 7.15987 | 24104 ft | 394 kts | 350° |
| 2026-05-07 11:34 | 55.00847 | 7.15285 | 24111 ft | 394 kts | 350° |
| 2026-05-07 11:35 | 55.03554 | 7.14491 | 24112 ft | 394 kts | 348° |
| 2026-05-07 11:35 | 55.06240 | 7.13594 | 24114 ft | 393 kts | 347° |
| 2026-05-07 11:35 | 55.08922 | 7.12657 | 24111 ft | 393 kts | 347° |
| 2026-05-07 11:35 | 55.11604 | 7.11713 | 24110 ft | 393 kts | 347° |
| 2026-05-07 11:36 | 55.14286 | 7.10780 | 24110 ft | 393 kts | 347° |
| 2026-05-07 11:36 | 55.16971 | 7.09859 | 24113 ft | 393 kts | 347° |
| 2026-05-07 11:36 | 55.19652 | 7.08950 | 24113 ft | 393 kts | 347° |
| 2026-05-07 11:36 | 55.22341 | 7.08045 | 24113 ft | 393 kts | 347° |
| 2026-05-07 11:37 | 55.25025 | 7.07145 | 24110 ft | 393 kts | 347° |
| 2026-05-07 11:37 | 55.27712 | 7.06243 | 24113 ft | 393 kts | 347° |
| 2026-05-07 11:37 | 55.30405 | 7.05338 | 24113 ft | 393 kts | 347° |
| 2026-05-07 11:37 | 55.33088 | 7.04436 | 24117 ft | 393 kts | 347° |
| 2026-05-07 11:38 | 55.35773 | 7.03531 | 24113 ft | 392 kts | 347° |
| 2026-05-07 11:38 | 55.38449 | 7.02627 | 24113 ft | 392 kts | 347° |
| 2026-05-07 11:38 | 55.41124 | 7.01721 | 24113 ft | 392 kts | 347° |
| 2026-05-07 11:38 | 55.43802 | 7.00812 | 24113 ft | 392 kts | 347° |
| 2026-05-07 11:39 | 55.46480 | 6.99902 | 24113 ft | 392 kts | 347° |
| 2026-05-07 11:39 | 55.49157 | 6.98992 | 24113 ft | 392 kts | 347° |
| 2026-05-07 11:39 | 55.51834 | 6.98081 | 24113 ft | 392 kts | 347° |
| 2026-05-07 11:39 | 55.54507 | 6.97169 | 24113 ft | 392 kts | 347° |
| 2026-05-07 11:40 | 55.57149 | 6.96267 | 24119 ft | 392 kts | 347° |
| 2026-05-07 11:40 | 55.59860 | 6.95341 | 24121 ft | 391 kts | 347° |
| 2026-05-07 11:40 | 55.62533 | 6.94426 | 24116 ft | 391 kts | 347° |
| 2026-05-07 11:40 | 55.65168 | 6.93523 | 24116 ft | 391 kts | 347° |
| 2026-05-07 11:41 | 55.67840 | 6.92605 | 24113 ft | 391 kts | 347° |
| 2026-05-07 11:41 | 55.70511 | 6.91687 | 24116 ft | 391 kts | 347° |
| 2026-05-07 11:41 | 55.73187 | 6.90766 | 24116 ft | 391 kts | 347° |
| 2026-05-07 11:41 | 55.74988 | 6.90145 | 24116 ft | 391 kts | 347° |